createdAt,value
2022-12-08T00:01:57.801Z,100727.30
2022-12-08T00:04:30.273Z,100728.52
2022-12-08T00:07:20.191Z,100730.99
2022-12-08T00:09:52.514Z,100739.14
2022-12-08T00:12:24.718Z,100749.33
2022-12-08T00:14:56.996Z,100748.02
2022-12-08T00:17:29.294Z,100753.36
2022-12-08T00:20:01.693Z,100758.98
2022-12-08T00:22:34.095Z,100762.63
2022-12-08T00:25:07.394Z,100761.63
2022-12-08T00:27:39.662Z,100752.42
2022-12-08T00:30:13.590Z,100754.04
2022-12-08T00:32:45.959Z,100755.61
2022-12-08T00:35:18.384Z,100755.55
2022-12-08T00:37:50.715Z,100757.67
2022-12-08T00:40:23.080Z,100755.77
2022-12-08T00:42:55.410Z,100747.63
2022-12-08T00:45:28.055Z,100743.08
2022-12-08T00:48:00.864Z,100748.73
2022-12-08T00:50:33.535Z,100750.17
2022-12-08T00:53:06.231Z,100754.61
2022-12-08T00:55:38.974Z,100756.65
2022-12-08T00:58:11.286Z,100757.98
2022-12-08T01:00:45.062Z,100757.86
2022-12-08T01:03:17.534Z,100753.64
2022-12-08T01:05:49.946Z,100753.31
2022-12-08T01:08:22.275Z,100751.53
2022-12-08T01:10:54.725Z,100742.30
2022-12-08T01:13:26.946Z,100741.74
2022-12-08T01:15:59.235Z,100746.98
2022-12-08T01:18:32.339Z,100755.98
2022-12-08T01:21:08.494Z,100754.80
2022-12-08T01:23:40.899Z,100750.77
2022-12-08T01:26:15.820Z,100753.13
2022-12-08T01:28:48.606Z,100750.14
2022-12-08T01:31:23.191Z,100747.36
2022-12-08T01:33:55.707Z,100738.84
2022-12-08T01:36:30.101Z,100737.19
2022-12-08T01:39:03.539Z,100737.17
2022-12-08T01:41:37.814Z,100742.04
2022-12-08T01:44:40.666Z,100758.45
2022-12-08T01:47:13.284Z,100782.44
2022-12-08T01:49:45.885Z,100777.88
2022-12-08T01:52:22.942Z,100774.11
2022-12-08T01:54:59.479Z,100780.45
2022-12-08T01:57:35.871Z,100775.77
2022-12-08T02:00:12.740Z,100770.56
2022-12-08T02:02:55.632Z,100773.14
2022-12-08T02:05:30.040Z,100776.08
2022-12-08T02:08:06.820Z,100772.98
2022-12-08T02:10:41.410Z,100764.01
2022-12-08T02:13:16.744Z,100763.22
2022-12-08T02:16:00.720Z,100758.21
2022-12-08T02:19:14.718Z,100755.25
2022-12-08T02:21:51.195Z,100746.46
2022-12-08T02:24:31.663Z,100750.65
2022-12-08T02:27:37.216Z,100766.58
2022-12-08T02:30:16.952Z,100774.39
2022-12-08T02:33:18.304Z,100771.23
2022-12-08T02:35:59.690Z,100774.31
2022-12-08T02:38:45.945Z,100775.88
2022-12-08T02:41:32.063Z,100769.85
2022-12-08T02:44:12.109Z,100771.05
2022-12-08T02:46:49.645Z,100778.91
2022-12-08T02:49:21.978Z,100788.55
2022-12-08T02:51:54.219Z,100797.51
2022-12-08T02:54:26.623Z,100795.77
2022-12-08T02:57:22.979Z,100799.06
2022-12-08T03:00:07.726Z,100797.92
2022-12-08T03:02:50.802Z,100809.02
2022-12-08T03:05:38.494Z,100823.31
2022-12-08T03:08:16.714Z,100822.31
2022-12-08T03:10:53.774Z,100818.66
2022-12-08T03:13:30.976Z,100817.85
2022-12-08T03:16:06.994Z,100815.81
2022-12-08T03:18:44.134Z,100820.92
2022-12-08T03:21:19.455Z,100830.52
2022-12-08T03:23:55.855Z,100825.16
2022-12-08T03:26:35.818Z,100822.91
2022-12-08T03:29:08.560Z,100820.15
2022-12-08T03:31:45.536Z,100814.80
2022-12-08T03:34:18.513Z,100809.42
2022-12-08T03:36:50.757Z,100812.13
2022-12-08T03:39:22.987Z,100807.17
2022-12-08T03:41:55.395Z,100806.60
2022-12-08T03:44:27.679Z,100804.88
2022-12-08T03:47:00.198Z,100805.52
2022-12-08T03:49:32.580Z,100809.63
2022-12-08T03:52:05.018Z,100813.89
2022-12-08T03:54:37.372Z,100812.18
2022-12-08T03:57:09.725Z,100816.25
2022-12-08T03:59:41.983Z,100818.95
2022-12-08T04:02:14.343Z,100825.11
2022-12-08T04:04:46.988Z,100826.17
2022-12-08T04:07:19.499Z,100832.49
2022-12-08T04:09:51.714Z,100821.52
2022-12-08T04:12:24.063Z,100813.23
2022-12-08T04:14:56.383Z,100809.81
2022-12-08T04:17:28.822Z,100819.35
2022-12-08T04:20:01.460Z,100817.65
2022-12-08T04:22:33.911Z,100807.74
2022-12-08T04:25:07.183Z,100818.33
2022-12-08T04:27:39.581Z,100826.96
2022-12-08T04:30:13.746Z,100823.17
2022-12-08T04:32:47.657Z,100829.77
2022-12-08T04:35:20.320Z,100832.13
2022-12-08T04:37:52.563Z,100826.25
2022-12-08T04:40:25.123Z,100821.05
2022-12-08T04:42:57.378Z,100822.91
2022-12-08T04:45:29.710Z,100822.89
2022-12-08T04:48:03.589Z,100811.63
2022-12-08T04:50:36.076Z,100804.05
2022-12-08T04:53:08.337Z,100800.70
2022-12-08T04:55:44.036Z,100800.80
2022-12-08T04:58:15.558Z,100799.17
2022-12-08T05:00:48.624Z,100800.74
2022-12-08T05:03:28.112Z,100798.41
2022-12-08T05:06:02.277Z,100806.41
2022-12-08T05:08:35.040Z,100806.48
2022-12-08T05:11:09.979Z,100809.27
2022-12-08T05:13:42.245Z,100809.64
2022-12-08T05:16:16.366Z,100810.80
2022-12-08T05:18:48.639Z,100806.50
2022-12-08T05:21:20.934Z,100811.73
2022-12-08T05:23:53.269Z,100812.71
2022-12-08T05:26:25.535Z,100818.09
2022-12-08T05:28:57.982Z,100820.31
2022-12-08T05:31:30.398Z,100815.06
2022-12-08T05:34:03.683Z,100819.45
2022-12-08T05:36:36.004Z,100819.61
2022-12-08T05:39:08.463Z,100824.29
2022-12-08T05:41:40.707Z,100826.05
2022-12-08T05:44:13.038Z,100829.52
2022-12-08T05:46:45.293Z,100830.98
2022-12-08T05:49:17.601Z,100834.95
2022-12-08T05:51:49.817Z,100840.20
2022-12-08T05:54:22.201Z,100845.35
2022-12-08T05:56:54.472Z,100850.98
2022-12-08T05:59:26.922Z,100851.45
2022-12-08T06:01:59.384Z,100850.96
2022-12-08T06:04:31.730Z,100859.77
2022-12-08T06:07:04.067Z,100866.31
2022-12-08T06:09:36.466Z,100865.16
2022-12-08T06:12:11.840Z,100863.51
2022-12-08T06:14:44.322Z,100874.58
2022-12-08T06:17:16.568Z,100873.13
2022-12-08T06:19:48.934Z,100879.53
2022-12-08T06:22:21.339Z,100882.48
2022-12-08T06:24:53.610Z,100880.48
2022-12-08T06:27:25.967Z,100875.16
2022-12-08T06:29:58.288Z,100876.35
2022-12-08T06:32:30.642Z,100886.53
2022-12-08T06:35:03.055Z,100895.44
2022-12-08T06:37:35.465Z,100908.10
2022-12-08T06:40:09.854Z,100904.79
2022-12-08T06:42:44.852Z,100904.25
2022-12-08T06:45:19.140Z,100907.64
2022-12-08T06:47:51.384Z,100907.73
2022-12-08T06:50:23.936Z,100915.90
2022-12-08T06:53:04.777Z,100920.84
2022-12-08T06:55:58.781Z,100918.55
2022-12-08T06:58:29.722Z,100918.13
2022-12-08T07:01:07.622Z,100909.86
2022-12-08T07:03:41.812Z,100907.89
2022-12-08T07:06:19.469Z,100908.02
2022-12-08T07:08:51.732Z,100904.53
2022-12-08T07:11:24.068Z,100909.61
2022-12-08T07:13:58.757Z,100921.83
2022-12-08T07:16:31.182Z,100927.00
2022-12-08T07:19:03.891Z,100941.14
2022-12-08T07:21:36.171Z,100947.41
2022-12-08T07:24:09.280Z,100944.71
2022-12-08T07:26:41.785Z,100945.38
2022-12-08T07:29:14.331Z,100944.21
2022-12-08T07:31:46.665Z,100941.20
2022-12-08T07:34:18.954Z,100944.70
2022-12-08T07:36:51.194Z,100946.96
2022-12-08T07:39:23.543Z,100948.02
2022-12-08T07:41:55.821Z,100957.70
2022-12-08T07:44:28.129Z,100960.96
2022-12-08T07:47:00.359Z,100965.81
2022-12-08T07:49:32.656Z,100966.30
2022-12-08T07:52:04.959Z,100960.56
2022-12-08T07:54:37.224Z,100950.43
2022-12-08T07:57:09.766Z,100949.89
2022-12-08T07:59:42.141Z,100952.33
2022-12-08T08:02:26.356Z,100943.25
2022-12-08T08:04:59.250Z,100942.21
2022-12-08T08:07:33.556Z,100945.20
2022-12-08T08:10:07.441Z,100944.16
2022-12-08T08:12:40.572Z,100945.50
2022-12-08T08:15:13.688Z,100949.62
2022-12-08T08:17:46.024Z,100945.73
2022-12-08T08:20:19.242Z,100934.98
2022-12-08T08:22:53.151Z,100942.52
2022-12-08T08:25:25.488Z,100944.75
2022-12-08T08:27:58.486Z,100948.55
2022-12-08T08:30:30.775Z,100945.89
2022-12-08T08:33:03.253Z,100946.11
2022-12-08T08:35:36.256Z,100941.98
2022-12-08T08:38:08.531Z,100935.14
2022-12-08T08:40:40.873Z,100926.64
2022-12-08T08:43:34.360Z,100916.08
2022-12-08T08:46:11.287Z,100923.26
2022-12-08T08:48:43.830Z,100925.73
2022-12-08T08:51:16.968Z,100935.05
2022-12-08T08:53:49.315Z,100930.83
2022-12-08T08:56:22.495Z,100928.66
2022-12-08T08:58:55.499Z,100921.41
2022-12-08T09:01:30.962Z,100925.89
2022-12-08T09:04:03.402Z,100924.15
2022-12-08T09:06:35.759Z,100915.65
2022-12-08T09:09:08.476Z,100914.48
2022-12-08T09:11:41.176Z,100921.92
2022-12-08T09:14:15.682Z,100931.86
2022-12-08T09:16:48.078Z,100933.73
2022-12-08T09:19:20.419Z,100935.61
2022-12-08T09:21:52.764Z,100932.98
2022-12-08T09:24:25.096Z,100923.92
2022-12-08T09:26:57.390Z,100916.61
2022-12-08T09:29:35.379Z,100910.02
2022-12-08T09:32:08.860Z,100907.00
2022-12-08T09:34:41.146Z,100904.90
2022-12-08T09:37:13.386Z,100899.09
2022-12-08T09:39:45.774Z,100893.38
2022-12-08T09:42:31.509Z,100890.16
2022-12-08T09:45:10.968Z,100881.86
2022-12-08T09:47:48.907Z,100878.72
2022-12-08T09:50:28.895Z,100875.11
2022-12-08T09:53:06.163Z,100873.13
2022-12-08T09:55:46.509Z,100873.42
2022-12-08T09:58:34.040Z,100865.94
2022-12-08T10:01:06.883Z,100871.73
2022-12-08T10:03:39.512Z,100871.42
2022-12-08T10:06:20.603Z,100869.82
2022-12-08T10:09:03.208Z,100865.36
2022-12-08T10:11:43.052Z,100856.70
2022-12-08T10:14:25.930Z,100859.61
2022-12-08T10:17:06.179Z,100868.11
2022-12-08T10:19:41.786Z,100861.54
2022-12-08T10:22:21.461Z,100863.64
2022-12-08T10:25:02.292Z,100870.38
2022-12-08T10:27:38.579Z,100869.54
2022-12-08T10:30:16.664Z,100861.22
2022-12-08T10:32:52.485Z,100851.08
2022-12-08T10:35:25.513Z,100845.70
2022-12-08T10:38:02.380Z,100841.29
2022-12-08T10:40:45.275Z,100839.65
2022-12-08T10:43:23.288Z,100838.86
2022-12-08T10:45:55.843Z,100838.14
2022-12-08T10:48:31.648Z,100844.38
2022-12-08T10:51:05.348Z,100854.01
2022-12-08T10:53:47.932Z,100857.80
2022-12-08T10:56:20.567Z,100848.33
2022-12-08T10:59:05.753Z,100847.95
2022-12-08T11:01:41.385Z,100846.58
2022-12-08T11:04:15.638Z,100845.67
2022-12-08T11:06:48.881Z,100850.29
2022-12-08T11:09:41.028Z,100847.15
2022-12-08T11:12:17.141Z,100849.74
2022-12-08T11:14:59.107Z,100836.93
2022-12-08T11:17:39.554Z,100830.42
2022-12-08T11:20:24.550Z,100826.14
2022-12-08T11:22:58.386Z,100813.45
2022-12-08T11:25:30.914Z,100810.35
2022-12-08T11:28:04.561Z,100810.59
2022-12-08T11:30:41.686Z,100806.66
2022-12-08T11:33:20.832Z,100810.47
2022-12-08T11:35:58.130Z,100814.94
2022-12-08T11:38:31.247Z,100813.84
2022-12-08T11:41:15.847Z,100812.98
2022-12-08T11:43:52.811Z,100815.11
2022-12-08T11:46:30.167Z,100816.79
2022-12-08T11:49:06.993Z,100820.11
2022-12-08T11:51:45.099Z,100822.86
2022-12-08T11:54:23.767Z,100815.58
2022-12-08T11:56:59.136Z,100813.73
2022-12-08T11:59:36.458Z,100813.08
2022-12-08T12:02:14.277Z,100817.86
2022-12-08T12:04:52.255Z,100804.42
2022-12-08T12:07:43.657Z,100796.91
2022-12-08T12:10:33.844Z,100797.58
2022-12-08T12:13:41.191Z,100797.73
2022-12-08T12:16:37.749Z,100793.59
2022-12-08T12:19:16.345Z,100794.33
2022-12-08T12:21:53.884Z,100802.63
2022-12-08T12:24:35.566Z,100805.89
2022-12-08T12:27:22.277Z,100805.60
2022-12-08T12:30:00.239Z,100796.19
2022-12-08T12:32:46.491Z,100783.80
2022-12-08T12:35:27.660Z,100783.49
2022-12-08T12:38:03.880Z,100780.35
2022-12-08T12:40:44.700Z,100777.73
2022-12-08T12:43:30.242Z,100776.58
2022-12-08T12:46:37.079Z,100779.64
2022-12-08T12:49:52.116Z,100790.36
2022-12-08T12:52:47.777Z,100784.97
2022-12-08T12:55:49.919Z,100777.32
2022-12-08T12:58:41.152Z,100776.98
2022-12-08T13:01:46.861Z,100772.08
2022-12-08T13:04:20.545Z,100771.52
2022-12-08T13:06:53.466Z,100780.76
2022-12-08T13:09:34.962Z,100787.61
2022-12-08T13:12:14.056Z,100784.56
2022-12-08T13:14:50.778Z,100781.75
2022-12-08T13:17:29.760Z,100766.63
2022-12-08T13:20:06.468Z,100759.94
2022-12-08T13:23:12.430Z,100756.77
2022-12-08T13:25:53.226Z,100761.22
2022-12-08T13:28:31.309Z,100772.71
2022-12-08T13:31:04.314Z,100781.64
2022-12-08T13:33:42.379Z,100779.34
2022-12-08T13:36:27.655Z,100775.32
2022-12-08T13:39:01.286Z,100777.56
2022-12-08T13:41:39.580Z,100786.21
2022-12-08T13:47:41.480Z,100781.29
2022-12-08T13:59:28.492Z,100790.88
2022-12-08T14:02:03.362Z,100788.33
2022-12-08T14:05:09.205Z,100782.30
2022-12-08T14:07:28.216Z,100795.45
2022-12-08T14:10:02.418Z,100800.89
2022-12-08T14:12:34.773Z,100798.91
2022-12-08T14:15:09.400Z,100799.78
2022-12-08T14:17:42.641Z,100791.42
2022-12-08T14:20:24.584Z,100784.97
2022-12-08T14:22:57.657Z,100784.05
2022-12-08T14:25:31.066Z,100778.91
2022-12-08T14:28:05.695Z,100774.05
2022-12-08T14:30:39.884Z,100779.23
2022-12-08T14:33:18.102Z,100777.30
2022-12-08T14:35:56.016Z,100776.67
2022-12-08T14:38:29.387Z,100770.15
2022-12-08T14:41:07.110Z,100773.46
2022-12-08T14:43:41.119Z,100779.44
2022-12-08T14:46:24.503Z,100780.84
2022-12-08T14:48:57.153Z,100786.61
2022-12-08T14:51:32.884Z,100787.68
2022-12-08T14:54:09.918Z,100790.20
2022-12-08T14:56:51.193Z,100792.52
2022-12-08T14:59:27.619Z,100792.04
2022-12-08T15:02:25.408Z,100791.55
2022-12-08T15:05:04.661Z,100788.52
2022-12-08T15:07:47.049Z,100787.17
2022-12-08T15:10:29.647Z,100786.14
2022-12-08T15:13:08.928Z,100785.70
2022-12-08T15:15:52.483Z,100785.61
2022-12-08T15:18:36.437Z,100786.57
2022-12-08T15:21:13.034Z,100782.84
2022-12-08T15:23:47.244Z,100777.14
2022-12-08T15:26:23.595Z,100776.40
2022-12-08T15:28:57.022Z,100778.52
2022-12-08T15:31:29.399Z,100776.04
2022-12-08T15:34:01.823Z,100773.27
2022-12-08T15:36:34.175Z,100776.37
2022-12-08T15:39:07.801Z,100773.30
2022-12-08T15:41:40.144Z,100771.03
2022-12-08T15:44:12.497Z,100772.46
2022-12-08T15:46:44.885Z,100770.23
2022-12-08T15:49:21.575Z,100771.80
2022-12-08T15:52:01.993Z,100771.70
2022-12-08T15:54:38.608Z,100770.63
2022-12-08T15:57:48.804Z,100763.45
2022-12-08T16:04:19.920Z,100758.52
2022-12-08T16:09:21.197Z,100766.77
2022-12-08T16:12:16.601Z,100764.05
2022-12-08T16:17:46.746Z,100778.68
2022-12-08T16:20:24.279Z,100782.13
2022-12-08T16:23:19.358Z,100781.73
2022-12-08T16:26:20.345Z,100770.55
2022-12-08T16:28:53.958Z,100776.86
2022-12-08T16:31:26.918Z,100782.86
2022-12-08T16:33:59.223Z,100787.27
2022-12-08T16:36:31.491Z,100787.70
2022-12-08T16:39:03.770Z,100797.77
2022-12-08T16:41:53.941Z,100804.16
2022-12-08T16:44:26.248Z,100802.42
2022-12-08T16:46:58.618Z,100801.27
2022-12-08T16:49:30.903Z,100793.39
2022-12-08T16:52:03.171Z,100792.46
2022-12-08T16:54:35.426Z,100795.06
2022-12-08T16:57:07.796Z,100796.52
2022-12-08T16:59:40.645Z,100794.75
2022-12-08T17:02:16.425Z,100795.00
2022-12-08T17:04:49.241Z,100804.04
2022-12-08T17:07:21.664Z,100808.21
2022-12-08T17:09:54.018Z,100806.12
2022-12-08T17:12:26.314Z,100803.63
2022-12-08T17:14:58.607Z,100801.06
2022-12-08T17:17:30.944Z,100794.16
2022-12-08T17:20:05.045Z,100785.03
2022-12-08T17:22:38.216Z,100777.52
2022-12-08T17:25:12.046Z,100781.75
2022-12-08T17:27:44.663Z,100772.70
2022-12-08T17:30:19.149Z,100767.39
2022-12-08T17:32:53.763Z,100769.05
2022-12-08T17:35:26.020Z,100771.38
2022-12-08T17:37:58.274Z,100771.25
2022-12-08T17:40:30.587Z,100774.64
2022-12-08T17:43:02.805Z,100773.60
2022-12-08T17:45:35.190Z,100778.45
2022-12-08T17:48:07.872Z,100779.09
2022-12-08T17:50:43.641Z,100770.88
2022-12-08T17:53:15.864Z,100764.23
2022-12-08T17:55:54.824Z,100762.19
2022-12-08T17:58:27.819Z,100761.34
2022-12-08T18:01:00.372Z,100764.03
2022-12-08T18:03:32.680Z,100760.44
2022-12-08T18:06:09.447Z,100755.54
2022-12-08T18:08:42.227Z,100756.57
2022-12-08T18:11:22.435Z,100753.16
2022-12-08T18:13:55.813Z,100760.83
2022-12-08T18:16:28.954Z,100767.70
2022-12-08T18:19:01.232Z,100768.77
2022-12-08T18:21:33.563Z,100770.86
2022-12-08T18:24:06.498Z,100771.64
2022-12-08T18:26:38.796Z,100773.28
2022-12-08T18:29:11.143Z,100772.95
2022-12-08T18:31:43.389Z,100770.79
2022-12-08T18:34:15.788Z,100768.25
2022-12-08T18:36:48.446Z,100765.33
2022-12-08T18:39:26.550Z,100754.41
2022-12-08T18:41:59.749Z,100737.27
2022-12-08T18:44:31.977Z,100732.54
2022-12-08T18:47:04.211Z,100726.39
2022-12-08T18:49:36.427Z,100732.48
2022-12-08T18:52:08.827Z,100737.15
2022-12-08T18:55:05.261Z,100741.15
2022-12-08T18:57:33.842Z,100734.81
2022-12-08T19:00:09.325Z,100740.32
2022-12-08T19:02:42.703Z,100737.77
2022-12-08T19:05:15.908Z,100739.52
2022-12-08T19:07:48.252Z,100741.77
2022-12-08T19:10:20.600Z,100738.55
2022-12-08T19:12:54.436Z,100733.33
2022-12-08T19:15:26.847Z,100727.45
2022-12-08T19:17:59.342Z,100728.76
2022-12-08T19:20:31.673Z,100718.08
2022-12-08T19:23:03.914Z,100722.20
2022-12-08T19:25:36.147Z,100725.63
2022-12-08T19:28:08.650Z,100733.23
2022-12-08T19:30:40.988Z,100739.31
2022-12-08T19:33:13.391Z,100740.48
2022-12-08T19:35:52.267Z,100740.64
2022-12-08T19:38:25.319Z,100738.68
2022-12-08T19:41:26.395Z,100739.44
2022-12-08T19:44:16.067Z,100739.95
2022-12-08T19:46:48.540Z,100739.70
2022-12-08T19:49:21.020Z,100736.52
2022-12-08T19:51:53.328Z,100729.94
2022-12-08T19:54:26.134Z,100730.17
2022-12-08T19:56:58.541Z,100725.12
2022-12-08T19:59:31.342Z,100726.85
2022-12-08T20:02:03.721Z,100722.64
2022-12-08T20:04:36.180Z,100715.42
2022-12-08T20:07:08.407Z,100711.39
2022-12-08T20:09:40.752Z,100702.79
2022-12-08T20:12:14.645Z,100703.13
2022-12-08T20:14:46.939Z,100701.58
2022-12-08T20:17:19.597Z,100711.35
2022-12-08T20:19:51.920Z,100715.17
2022-12-08T20:22:24.263Z,100718.91
2022-12-08T20:25:00.843Z,100721.12
2022-12-08T20:27:34.075Z,100718.00
2022-12-08T20:30:11.815Z,100726.66
2022-12-08T20:32:47.819Z,100723.45
2022-12-08T20:35:20.160Z,100728.68
2022-12-08T20:37:52.419Z,100735.78
2022-12-08T20:40:25.173Z,100740.36
2022-12-08T20:42:57.671Z,100730.05
2022-12-08T20:45:30.211Z,100729.83
2022-12-08T20:48:02.661Z,100730.01
2022-12-08T20:50:34.963Z,100733.60
2022-12-08T20:53:08.429Z,100732.05
2022-12-08T20:55:43.429Z,100736.31
2022-12-08T20:58:15.901Z,100738.73
2022-12-08T21:00:48.170Z,100737.39
2022-12-08T21:03:20.853Z,100733.55
2022-12-08T21:05:54.199Z,100739.02
2022-12-08T21:08:26.961Z,100740.42
2022-12-08T21:10:59.685Z,100732.57
2022-12-08T21:13:32.656Z,100732.34
2022-12-08T21:16:05.578Z,100741.84
2022-12-08T21:18:39.810Z,100756.86
2022-12-08T21:21:14.435Z,100747.84
2022-12-08T21:23:47.268Z,100746.55
2022-12-08T21:26:21.748Z,100754.52
2022-12-08T21:28:55.024Z,100749.48
2022-12-08T21:31:29.436Z,100745.64
2022-12-08T21:34:02.515Z,100746.35
2022-12-08T21:36:35.430Z,100759.06
2022-12-08T21:39:12.823Z,100763.95
2022-12-08T21:42:02.940Z,100760.70
2022-12-08T21:44:36.371Z,100761.26
2022-12-08T21:47:09.431Z,100764.72
2022-12-08T21:49:43.148Z,100760.78
2022-12-08T21:52:15.475Z,100752.91
2022-12-08T21:54:47.988Z,100747.90
2022-12-08T21:57:20.619Z,100741.64
2022-12-08T21:59:53.121Z,100731.19
2022-12-08T22:02:25.745Z,100722.70
2022-12-08T22:04:58.379Z,100714.05
2022-12-08T22:07:31.071Z,100701.95
2022-12-08T22:10:03.718Z,100686.73
2022-12-08T22:12:36.884Z,100680.41
2022-12-08T22:15:11.986Z,100673.55
2022-12-08T22:17:45.574Z,100666.82
2022-12-08T22:20:18.711Z,100665.45
2022-12-08T22:22:51.163Z,100668.61
2022-12-08T22:25:23.715Z,100663.27
2022-12-08T22:27:56.266Z,100673.98
2022-12-08T22:30:28.836Z,100683.81
2022-12-08T22:33:02.598Z,100681.40
2022-12-08T22:35:34.873Z,100674.55
2022-12-08T22:38:07.419Z,100671.50
2022-12-08T22:40:42.765Z,100666.83
2022-12-08T22:43:15.167Z,100665.44
2022-12-08T22:45:47.649Z,100656.88
2022-12-08T22:48:20.232Z,100646.24
2022-12-08T22:50:52.596Z,100641.56
2022-12-08T22:53:24.850Z,100639.46
2022-12-08T22:55:57.124Z,100641.86
2022-12-08T22:58:29.814Z,100647.34
2022-12-08T23:01:02.161Z,100651.80
2022-12-08T23:03:35.008Z,100656.40
2022-12-08T23:06:14.884Z,100655.64
2022-12-08T23:08:47.762Z,100658.44
2022-12-08T23:11:21.065Z,100655.62
2022-12-08T23:13:53.666Z,100662.31
2022-12-08T23:16:26.057Z,100660.48
2022-12-08T23:18:59.822Z,100636.46
2022-12-08T23:21:32.816Z,100633.61
2022-12-08T23:24:05.747Z,100644.71
2022-12-08T23:26:38.143Z,100649.47
2022-12-08T23:29:10.777Z,100642.21
2022-12-08T23:31:43.339Z,100638.83
2022-12-08T23:34:15.885Z,100638.94
2022-12-08T23:36:48.125Z,100638.84
2022-12-08T23:39:24.202Z,100651.49
2022-12-08T23:41:56.503Z,100658.18
2022-12-08T23:44:28.730Z,100669.98
2022-12-08T23:47:01.133Z,100691.73
2022-12-08T23:49:33.615Z,100702.38
2022-12-08T23:52:06.191Z,100690.65
2022-12-08T23:54:38.681Z,100696.75
2022-12-08T23:57:11.172Z,100698.72
2022-12-08T23:59:43.659Z,100700.27
